createdAt,value
2023-05-24T00:00:07.890Z,99548.88
2023-05-24T00:02:34.523Z,99549.94
2023-05-24T00:05:01.552Z,99555.66
2023-05-24T00:07:28.437Z,99545.19
2023-05-24T00:09:55.019Z,99546.53
2023-05-24T00:12:21.585Z,99544.72
2023-05-24T00:14:49.479Z,99542.38
2023-05-24T00:17:16.112Z,99554.56
2023-05-24T00:19:42.705Z,99547.47
2023-05-24T00:22:09.246Z,99551.00
2023-05-24T00:24:35.790Z,99552.59
2023-05-24T00:27:02.378Z,99558.88
2023-05-24T00:29:31.429Z,99555.41
2023-05-24T00:32:00.228Z,99560.59
2023-05-24T00:34:26.877Z,99558.44
2023-05-24T00:36:53.437Z,99567.63
2023-05-24T00:39:20.042Z,99564.69
2023-05-24T00:41:46.556Z,99571.72
2023-05-24T00:44:13.081Z,99573.97
2023-05-24T00:46:39.984Z,99563.25
2023-05-24T00:49:09.179Z,99565.78
2023-05-24T00:51:36.424Z,99561.00
2023-05-24T00:54:03.269Z,99561.59
2023-05-24T00:56:30.891Z,99564.09
2023-05-24T00:58:58.001Z,99566.56
2023-05-24T01:01:24.701Z,99559.59
2023-05-24T01:03:51.929Z,99570.94
2023-05-24T01:06:20.256Z,99567.47
2023-05-24T01:09:06.264Z,99556.44
2023-05-24T01:11:45.826Z,99559.94
2023-05-24T01:14:22.694Z,99550.84
2023-05-24T01:16:52.765Z,99554.41
2023-05-24T01:19:47.792Z,99551.97
2023-05-24T01:22:46.853Z,99556.34
2023-05-24T01:25:27.830Z,99554.13
2023-05-24T01:27:56.147Z,99554.41
2023-05-24T01:30:23.607Z,99558.03
2023-05-24T01:32:50.355Z,99551.84
2023-05-24T01:35:16.964Z,99558.09
2023-05-24T01:37:43.631Z,99558.91
2023-05-24T01:40:11.424Z,99553.03
2023-05-24T01:42:45.726Z,99552.78
2023-05-24T01:45:19.801Z,99556.84
2023-05-24T01:48:05.283Z,99546.91
2023-05-24T01:50:34.488Z,99553.38
2023-05-24T01:53:06.631Z,99549.94
2023-05-24T01:55:34.639Z,99557.47
2023-05-24T01:58:04.477Z,99550.22
2023-05-24T02:00:33.656Z,99544.84
2023-05-24T02:03:01.323Z,99545.69
2023-05-24T02:05:28.074Z,99549.22
2023-05-24T02:07:54.690Z,99548.16
2023-05-24T02:10:21.256Z,99550.59
2023-05-24T02:12:47.822Z,99556.81
2023-05-24T02:15:14.459Z,99556.03
2023-05-24T02:17:42.589Z,99558.72
2023-05-24T02:20:10.029Z,99552.78
2023-05-24T02:22:36.792Z,99547.69
2023-05-24T02:25:03.689Z,99541.50
2023-05-24T02:27:30.849Z,99543.38
2023-05-24T02:29:57.389Z,99543.13
2023-05-24T02:32:23.999Z,99545.25
2023-05-24T02:34:51.943Z,99538.78
2023-05-24T02:37:18.693Z,99540.09
2023-05-24T02:39:45.318Z,99540.88
2023-05-24T02:42:11.884Z,99536.56
2023-05-24T02:44:38.453Z,99534.41
2023-05-24T02:47:05.686Z,99533.34
2023-05-24T02:49:32.419Z,99528.22
2023-05-24T02:52:00.354Z,99529.56
2023-05-24T02:54:26.923Z,99533.63
2023-05-24T02:56:53.574Z,99530.72
2023-05-24T02:59:20.143Z,99528.28
2023-05-24T03:01:46.737Z,99523.94
2023-05-24T03:04:13.359Z,99530.09
2023-05-24T03:06:39.934Z,99514.19
2023-05-24T03:09:07.824Z,99518.22
2023-05-24T03:11:34.404Z,99512.28
2023-05-24T03:14:01.082Z,99506.66
2023-05-24T03:16:27.649Z,99506.66
2023-05-24T03:18:54.266Z,99515.88
2023-05-24T03:21:21.395Z,99509.63
2023-05-24T03:23:48.142Z,99517.97
2023-05-24T03:26:16.433Z,99512.59
2023-05-24T03:28:42.972Z,99514.78
2023-05-24T03:31:09.765Z,99517.22
2023-05-24T03:33:36.500Z,99513.16
2023-05-24T03:36:04.489Z,99519.13
2023-05-24T03:38:31.078Z,99524.78
2023-05-24T03:40:57.656Z,99525.84
2023-05-24T03:43:25.558Z,99536.38
2023-05-24T03:45:52.227Z,99537.97
2023-05-24T03:48:18.843Z,99536.59
2023-05-24T03:50:45.699Z,99541.41
2023-05-24T03:53:12.379Z,99543.28
2023-05-24T03:55:38.958Z,99543.28
2023-05-24T03:58:05.510Z,99547.81
2023-05-24T04:00:33.377Z,99551.59
2023-05-24T04:03:00.026Z,99552.09
2023-05-24T04:05:26.716Z,99548.31
2023-05-24T04:07:53.343Z,99553.97
2023-05-24T04:10:20.102Z,99545.06
2023-05-24T04:12:46.648Z,99556.34
2023-05-24T04:15:13.186Z,99555.81
2023-05-24T04:17:41.212Z,99551.72
2023-05-24T04:20:08.510Z,99548.97
2023-05-24T04:22:35.065Z,99548.97
2023-05-24T04:25:01.717Z,99556.69
2023-05-24T04:27:28.307Z,99562.81
2023-05-24T04:29:54.820Z,99562.50
2023-05-24T04:32:21.503Z,99565.41
2023-05-24T04:34:49.830Z,99565.31
2023-05-24T04:37:16.637Z,99562.03
2023-05-24T04:39:43.870Z,99569.31
2023-05-24T04:42:11.052Z,99576.59
2023-05-24T04:44:38.095Z,99575.25
2023-05-24T04:47:05.164Z,99571.41
2023-05-24T04:49:32.124Z,99576.78
2023-05-24T04:52:00.189Z,99573.97
2023-05-24T04:54:26.897Z,99571.97
2023-05-24T04:56:53.517Z,99573.78
2023-05-24T04:59:20.226Z,99580.69
2023-05-24T05:01:47.013Z,99578.44
2023-05-24T05:04:13.657Z,99575.03
2023-05-24T05:06:40.258Z,99567.09
2023-05-24T05:09:08.906Z,99572.66
2023-05-24T05:11:35.546Z,99574.47
2023-05-24T05:14:02.171Z,99575.53
2023-05-24T05:16:28.882Z,99578.16
2023-05-24T05:18:55.464Z,99578.91
2023-05-24T05:21:22.062Z,99578.47
2023-05-24T05:23:48.850Z,99578.13
2023-05-24T05:26:16.848Z,99585.50
2023-05-24T05:28:43.578Z,99586.25
2023-05-24T05:31:10.324Z,99588.03
2023-05-24T05:33:36.882Z,99584.28
2023-05-24T05:36:03.636Z,99576.88
2023-05-24T05:38:30.184Z,99580.34
2023-05-24T05:40:56.754Z,99587.94
2023-05-24T05:43:24.670Z,99587.03
2023-05-24T05:45:51.412Z,99580.09
2023-05-24T05:48:18.104Z,99578.34
2023-05-24T05:50:44.792Z,99588.72
2023-05-24T05:53:11.456Z,99583.69
2023-05-24T05:55:38.191Z,99578.50
2023-05-24T05:58:04.933Z,99580.09
2023-05-24T06:00:32.893Z,99581.06
2023-05-24T06:02:59.798Z,99580.75
2023-05-24T06:05:26.607Z,99581.13
2023-05-24T06:07:53.107Z,99589.09
2023-05-24T06:10:19.650Z,99594.22
2023-05-24T06:12:46.212Z,99588.88
2023-05-24T06:15:12.804Z,99594.94
2023-05-24T06:17:40.871Z,99598.19
2023-05-24T06:20:08.234Z,99604.97
2023-05-24T06:22:34.893Z,99600.94
2023-05-24T06:25:01.425Z,99599.66
2023-05-24T06:27:28.114Z,99611.50
2023-05-24T06:29:54.744Z,99606.69
2023-05-24T06:32:21.395Z,99610.06
2023-05-24T06:34:49.324Z,99616.28
2023-05-24T06:37:16.018Z,99614.19
2023-05-24T06:39:42.601Z,99623.91
2023-05-24T06:42:09.195Z,99624.66
2023-05-24T06:44:35.867Z,99628.03
2023-05-24T06:47:02.653Z,99631.38
2023-05-24T06:49:29.365Z,99623.88
2023-05-24T06:51:57.346Z,99629.59
2023-05-24T06:54:23.930Z,99627.78
2023-05-24T06:56:50.680Z,99635.75
2023-05-24T06:59:17.245Z,99625.09
2023-05-24T07:01:44.078Z,99633.34
2023-05-24T07:04:13.297Z,99637.47
2023-05-24T07:06:39.892Z,99635.69
2023-05-24T07:09:08.056Z,99626.56
2023-05-24T07:11:34.659Z,99636.31
2023-05-24T07:14:01.255Z,99635.50
2023-05-24T07:16:28.094Z,99638.72
2023-05-24T07:18:55.208Z,99638.09
2023-05-24T07:21:21.878Z,99641.50
2023-05-24T07:23:49.412Z,99645.13
2023-05-24T07:26:17.339Z,99635.34
2023-05-24T07:28:43.947Z,99639.78
2023-05-24T07:31:10.558Z,99639.66
2023-05-24T07:33:37.741Z,99637.06
2023-05-24T07:36:05.039Z,99638.81
2023-05-24T07:38:31.730Z,99645.34
2023-05-24T07:40:59.869Z,99640.44
2023-05-24T07:43:27.770Z,99634.16
2023-05-24T07:45:54.383Z,99644.63
2023-05-24T07:48:21.028Z,99645.34
2023-05-24T07:50:48.969Z,99632.88
2023-05-24T07:53:15.650Z,99634.09
2023-05-24T07:55:42.418Z,99636.22
2023-05-24T07:58:09.130Z,99638.28
2023-05-24T08:00:37.053Z,99635.47
2023-05-24T08:03:03.793Z,99635.13
2023-05-24T08:05:30.391Z,99629.09
2023-05-24T08:07:57.038Z,99633.19
2023-05-24T08:10:23.908Z,99628.69
2023-05-24T08:12:51.012Z,99630.34
2023-05-24T08:15:17.681Z,99624.91
2023-05-24T08:17:45.673Z,99625.72
2023-05-24T08:20:12.355Z,99630.84
2023-05-24T08:22:38.931Z,99629.53
2023-05-24T08:25:06.451Z,99629.53
2023-05-24T08:27:33.038Z,99626.81
2023-05-24T08:30:02.746Z,99628.84
2023-05-24T08:32:32.596Z,99632.53
2023-05-24T08:35:14.857Z,99628.00
2023-05-24T08:37:46.555Z,99640.09
2023-05-24T08:40:13.338Z,99642.59
2023-05-24T08:42:41.151Z,99647.97
2023-05-24T08:45:11.580Z,99650.84
2023-05-24T08:47:38.682Z,99641.13
2023-05-24T08:50:08.116Z,99646.78
2023-05-24T08:52:35.830Z,99644.50
2023-05-24T08:55:04.547Z,99649.22
2023-05-24T08:57:31.501Z,99648.47
2023-05-24T08:59:58.250Z,99652.22
2023-05-24T09:02:24.929Z,99652.50
2023-05-24T09:04:53.384Z,99655.03
2023-05-24T09:07:23.894Z,99644.50
2023-05-24T09:09:57.588Z,99647.34
2023-05-24T09:12:36.114Z,99648.34
2023-05-24T09:15:05.560Z,99645.97
2023-05-24T09:17:33.795Z,99641.91
2023-05-24T09:20:01.132Z,99639.59
2023-05-24T09:22:29.340Z,99635.31
2023-05-24T09:24:58.620Z,99640.59
2023-05-24T09:27:25.269Z,99626.41
2023-05-24T09:29:52.199Z,99639.16
2023-05-24T09:32:20.366Z,99640.66
2023-05-24T09:34:47.544Z,99641.56
2023-05-24T09:37:15.721Z,99640.97
2023-05-24T09:39:44.587Z,99635.19
2023-05-24T09:42:15.289Z,99630.06
2023-05-24T09:44:41.877Z,99633.38
2023-05-24T09:47:08.457Z,99624.84
2023-05-24T09:49:37.202Z,99628.41
2023-05-24T09:52:04.512Z,99632.97
2023-05-24T09:54:31.916Z,99621.94
2023-05-24T09:57:03.477Z,99619.91
2023-05-24T09:59:32.980Z,99618.19
2023-05-24T10:02:08.089Z,99602.41
2023-05-24T10:04:34.714Z,99611.72
2023-05-24T10:07:01.935Z,99619.91
2023-05-24T10:09:29.401Z,99616.25
2023-05-24T10:11:56.078Z,99617.97
2023-05-24T10:14:25.195Z,99622.53
2023-05-24T10:16:51.896Z,99625.28
2023-05-24T10:19:18.674Z,99637.66
2023-05-24T10:21:45.862Z,99629.09
2023-05-24T10:24:14.661Z,99635.97
2023-05-24T10:26:41.853Z,99642.56
2023-05-24T10:29:17.229Z,99641.44
2023-05-24T10:31:45.785Z,99639.19
2023-05-24T10:34:13.082Z,99639.28
2023-05-24T10:36:40.181Z,99634.38
2023-05-24T10:39:09.323Z,99640.03
2023-05-24T10:41:39.208Z,99635.78
2023-05-24T10:44:11.028Z,99630.97
2023-05-24T10:47:06.998Z,99619.63
2023-05-24T10:49:33.655Z,99630.72
2023-05-24T10:52:07.341Z,99634.03
2023-05-24T10:54:34.065Z,99622.94
2023-05-24T10:57:01.798Z,99630.84
2023-05-24T10:59:31.661Z,99627.03
2023-05-24T11:01:59.583Z,99632.09
2023-05-24T11:04:31.395Z,99624.47
2023-05-24T11:07:01.604Z,99621.38
2023-05-24T11:09:28.230Z,99621.44
2023-05-24T11:11:56.361Z,99627.88
2023-05-24T11:14:25.015Z,99631.41
2023-05-24T11:16:51.989Z,99631.44
2023-05-24T11:19:20.248Z,99633.34
2023-05-24T11:21:49.283Z,99628.63
2023-05-24T11:24:17.621Z,99627.97
2023-05-24T11:26:44.404Z,99629.50
2023-05-24T11:29:13.153Z,99626.78
2023-05-24T11:31:46.697Z,99626.72
2023-05-24T11:34:13.488Z,99634.47
2023-05-24T11:36:40.785Z,99630.66
2023-05-24T11:39:08.967Z,99622.97
2023-05-24T11:41:37.477Z,99622.53
2023-05-24T11:44:04.213Z,99619.19
2023-05-24T11:46:31.583Z,99620.50
2023-05-24T11:48:58.563Z,99612.44
2023-05-24T11:51:29.473Z,99605.97
2023-05-24T11:53:56.869Z,99603.50
2023-05-24T11:56:24.937Z,99596.00
2023-05-24T11:59:03.253Z,99590.41
2023-05-24T12:01:29.786Z,99591.06
2023-05-24T12:03:56.473Z,99598.56
2023-05-24T12:06:23.312Z,99599.94
2023-05-24T12:08:49.983Z,99608.88
2023-05-24T12:11:16.930Z,99593.22
2023-05-24T12:13:44.934Z,99593.38
2023-05-24T12:16:12.107Z,99589.69
2023-05-24T12:18:41.628Z,99586.28
2023-05-24T12:21:12.511Z,99587.41
2023-05-24T12:23:39.717Z,99590.41
2023-05-24T12:26:06.448Z,99589.38
2023-05-24T12:28:34.150Z,99586.72
2023-05-24T12:31:02.432Z,99589.31
2023-05-24T12:33:28.964Z,99586.84
2023-05-24T12:35:55.591Z,99594.13
2023-05-24T12:38:24.176Z,99585.97
2023-05-24T12:41:08.185Z,99582.97
2023-05-24T12:43:39.261Z,99587.28
2023-05-24T12:46:07.140Z,99593.41
2023-05-24T12:48:33.779Z,99581.66
2023-05-24T12:51:00.399Z,99565.19
2023-05-24T12:53:26.901Z,99572.81
2023-05-24T12:55:53.543Z,99575.59
2023-05-24T12:58:20.163Z,99578.97
2023-05-24T13:00:46.832Z,99573.31
2023-05-24T13:03:14.949Z,99576.44
2023-05-24T13:05:41.561Z,99573.91
2023-05-24T13:08:08.512Z,99571.00
2023-05-24T13:10:35.076Z,99569.59
2023-05-24T13:13:01.795Z,99579.78
2023-05-24T13:15:28.393Z,99574.75
2023-05-24T13:17:55.030Z,99574.00
2023-05-24T13:20:23.215Z,99570.97
2023-05-24T13:22:49.827Z,99574.06
2023-05-24T13:25:16.482Z,99573.03
2023-05-24T13:27:43.057Z,99564.13
2023-05-24T13:30:10.584Z,99559.59
2023-05-24T13:32:39.721Z,99575.84
2023-05-24T13:35:08.761Z,99576.22
2023-05-24T13:37:36.774Z,99575.25
2023-05-24T13:40:04.074Z,99574.59
2023-05-24T13:42:30.803Z,99571.53
2023-05-24T13:44:57.485Z,99574.72
2023-05-24T13:47:38.785Z,99577.03
2023-05-24T13:50:07.679Z,99566.47
2023-05-24T13:52:35.613Z,99567.63
2023-05-24T13:55:03.516Z,99562.19
2023-05-24T13:57:46.951Z,99577.47
2023-05-24T14:00:17.944Z,99581.56
2023-05-24T14:02:44.598Z,99577.22
2023-05-24T14:05:25.739Z,99577.22
2023-05-24T14:07:55.670Z,99575.59
2023-05-24T14:10:22.489Z,99581.03
2023-05-24T14:12:59.383Z,99591.91
2023-05-24T14:15:30.922Z,99575.22
2023-05-24T14:17:57.877Z,99590.56
2023-05-24T14:20:24.495Z,99586.50
2023-05-24T14:22:51.249Z,99579.94
2023-05-24T14:25:19.168Z,99595.94
2023-05-24T14:27:45.743Z,99589.41
2023-05-24T14:30:12.930Z,99583.69
2023-05-24T14:32:39.506Z,99573.13
2023-05-24T14:35:06.698Z,99582.41
2023-05-24T14:37:33.282Z,99573.09
2023-05-24T14:40:00.112Z,99575.63
2023-05-24T14:42:28.143Z,99580.50
2023-05-24T14:44:54.731Z,99572.16
2023-05-24T14:47:21.275Z,99582.66
2023-05-24T14:49:47.840Z,99577.50
2023-05-24T14:52:14.521Z,99588.53
2023-05-24T14:54:41.098Z,99588.69
2023-05-24T14:57:07.750Z,99587.25
2023-05-24T14:59:35.675Z,99590.34
2023-05-24T15:02:02.191Z,99588.84
2023-05-24T15:04:28.728Z,99590.44
2023-05-24T15:06:55.451Z,99599.09
2023-05-24T15:09:22.012Z,99594.38
2023-05-24T15:11:48.588Z,99594.75
2023-05-24T15:14:15.355Z,99605.91
2023-05-24T15:16:43.297Z,99603.41
2023-05-24T15:19:09.899Z,99601.06
2023-05-24T15:21:36.654Z,99599.63
2023-05-24T15:24:03.467Z,99592.94
2023-05-24T15:26:30.041Z,99607.47
2023-05-24T15:28:56.640Z,99599.72
2023-05-24T15:31:23.242Z,99610.69
2023-05-24T15:33:51.215Z,99604.75
2023-05-24T15:36:17.915Z,99600.81
2023-05-24T15:38:44.484Z,99592.16
2023-05-24T15:41:11.167Z,99597.28
2023-05-24T15:43:37.901Z,99595.16
2023-05-24T15:46:04.648Z,99596.63
2023-05-24T15:48:31.315Z,99595.03
2023-05-24T15:51:53.630Z,99592.78
2023-05-24T15:53:45.808Z,99587.16
2023-05-24T15:56:12.390Z,99587.59
2023-05-24T15:58:39.032Z,99590.19
2023-05-24T16:01:05.807Z,99590.28
2023-05-24T16:03:32.715Z,99578.13
2023-05-24T16:06:00.754Z,99589.22
2023-05-24T16:08:28.173Z,99578.69
2023-05-24T16:10:54.870Z,99586.66
2023-05-24T16:13:21.531Z,99585.31
2023-05-24T16:15:48.210Z,99581.06
2023-05-24T16:18:14.820Z,99585.69
2023-05-24T16:20:41.655Z,99572.22
2023-05-24T16:23:09.946Z,99575.78
2023-05-24T16:25:36.692Z,99574.91
2023-05-24T16:28:03.335Z,99572.19
2023-05-24T16:30:29.932Z,99569.75
2023-05-24T16:32:56.463Z,99572.09
2023-05-24T16:35:23.068Z,99576.59
2023-05-24T16:37:50.990Z,99582.31
2023-05-24T16:40:18.892Z,99579.25
2023-05-24T16:42:45.381Z,99573.06
2023-05-24T16:45:11.950Z,99568.09
2023-05-24T16:47:38.539Z,99581.88
2023-05-24T16:50:06.135Z,99577.56
2023-05-24T16:52:32.694Z,99570.13
2023-05-24T16:54:59.313Z,99579.28
2023-05-24T16:57:27.185Z,99581.75
2023-05-24T16:59:53.726Z,99578.88
2023-05-24T17:02:20.440Z,99579.59
2023-05-24T17:04:46.955Z,99574.72
2023-05-24T17:07:13.539Z,99580.09
2023-05-24T17:09:40.126Z,99569.44
2023-05-24T17:12:06.871Z,99581.91
2023-05-24T17:14:34.726Z,99590.00
2023-05-24T17:17:01.422Z,99584.44
2023-05-24T17:19:27.968Z,99587.25
2023-05-24T17:21:54.493Z,99588.31
2023-05-24T17:24:21.216Z,99590.47
2023-05-24T17:26:47.850Z,99584.25
2023-05-24T17:29:14.476Z,99588.59
2023-05-24T17:31:42.415Z,99595.50
2023-05-24T17:34:09.101Z,99585.16
2023-05-24T17:36:35.615Z,99584.34
2023-05-24T17:39:02.189Z,99581.53
2023-05-24T17:41:28.747Z,99586.38
2023-05-24T17:43:55.323Z,99589.13
2023-05-24T17:46:21.897Z,99591.13
2023-05-24T17:48:49.846Z,99602.59
2023-05-24T17:51:16.501Z,99592.50
2023-05-24T17:53:43.312Z,99594.25
2023-05-24T17:56:09.895Z,99596.22
2023-05-24T17:58:37.408Z,99601.59
2023-05-24T18:01:05.274Z,99597.00
2023-05-24T18:03:32.004Z,99599.19
2023-05-24T18:06:00.149Z,99608.31
2023-05-24T18:08:26.712Z,99609.66
2023-05-24T18:10:53.312Z,99604.53
2023-05-24T18:13:19.880Z,99615.09
2023-05-24T18:15:46.615Z,99618.44
2023-05-24T18:18:13.570Z,99611.44
2023-05-24T18:20:40.553Z,99615.97
2023-05-24T18:23:08.814Z,99618.88
2023-05-24T18:25:35.629Z,99620.09
2023-05-24T18:28:02.287Z,99627.47
2023-05-24T18:30:28.828Z,99623.28
2023-05-24T18:33:05.594Z,99629.72
2023-05-24T18:35:34.948Z,99628.16
2023-05-24T18:38:01.631Z,99626.38
2023-05-24T18:40:29.661Z,99629.06
2023-05-24T18:42:56.217Z,99624.78
2023-05-24T18:45:22.895Z,99631.75
2023-05-24T18:47:49.685Z,99630.88
2023-05-24T18:50:16.319Z,99635.44
2023-05-24T18:52:43.045Z,99633.53
2023-05-24T18:55:09.900Z,99639.88
2023-05-24T18:57:38.179Z,99640.53
2023-05-24T19:00:05.850Z,99634.78
2023-05-24T19:02:32.593Z,99638.81
2023-05-24T19:04:59.244Z,99645.88
2023-05-24T19:07:26.126Z,99645.84
2023-05-24T19:09:52.776Z,99647.03
2023-05-24T19:12:19.356Z,99641.56
2023-05-24T19:14:47.522Z,99646.38
2023-05-24T19:17:14.250Z,99643.03
2023-05-24T19:19:40.784Z,99646.72
2023-05-24T19:22:07.513Z,99644.47
2023-05-24T19:24:34.088Z,99644.00
2023-05-24T19:27:00.613Z,99645.59
2023-05-24T19:29:27.346Z,99652.44
2023-05-24T19:31:55.355Z,99651.00
2023-05-24T19:34:22.046Z,99655.44
2023-05-24T19:36:48.568Z,99657.84
2023-05-24T19:39:15.484Z,99667.47
2023-05-24T19:41:41.985Z,99669.41
2023-05-24T19:44:08.712Z,99668.25
2023-05-24T19:46:35.362Z,99672.25
2023-05-24T19:49:03.349Z,99675.09
2023-05-24T19:51:29.927Z,99674.94
2023-05-24T19:53:56.474Z,99682.09
2023-05-24T19:56:22.990Z,99682.66
2023-05-24T19:58:49.540Z,99684.22
2023-05-24T20:01:16.124Z,99686.59
2023-05-24T20:03:42.834Z,99698.22
2023-05-24T20:06:10.778Z,99701.69
2023-05-24T20:08:37.284Z,99706.09
2023-05-24T20:11:03.815Z,99707.13
2023-05-24T20:13:30.343Z,99711.19
2023-05-24T20:15:56.933Z,99712.81
2023-05-24T20:18:23.531Z,99719.94
2023-05-24T20:20:50.272Z,99723.25
2023-05-24T20:23:18.261Z,99726.09
2023-05-24T20:25:44.941Z,99727.28
2023-05-24T20:28:25.589Z,99726.63
2023-05-24T20:30:55.807Z,99727.81
2023-05-24T20:33:22.383Z,99729.22
2023-05-24T20:35:49.018Z,99728.91
2023-05-24T20:38:15.742Z,99735.88
2023-05-24T20:40:43.670Z,99736.97
2023-05-24T20:43:10.354Z,99729.25
2023-05-24T20:45:36.882Z,99737.31
2023-05-24T20:48:03.761Z,99737.53
2023-05-24T20:50:30.340Z,99739.06
2023-05-24T20:52:56.898Z,99750.72
2023-05-24T20:55:25.829Z,99734.91
2023-05-24T20:57:54.628Z,99745.09
2023-05-24T21:00:21.236Z,99749.31
2023-05-24T21:02:48.034Z,99741.09
2023-05-24T21:05:14.891Z,99742.53
2023-05-24T21:07:41.453Z,99752.66
2023-05-24T21:10:08.911Z,99753.97
2023-05-24T21:12:35.632Z,99760.56
2023-05-24T21:15:04.159Z,99761.47
2023-05-24T21:17:30.692Z,99772.09
2023-05-24T21:19:57.502Z,99765.94
2023-05-24T21:22:24.140Z,99767.44
2023-05-24T21:24:50.646Z,99772.50
2023-05-24T21:27:18.462Z,99778.88
2023-05-24T21:29:45.343Z,99771.63
2023-05-24T21:32:13.390Z,99770.63
2023-05-24T21:34:40.102Z,99777.69
2023-05-24T21:37:06.632Z,99774.28
2023-05-24T21:39:33.407Z,99775.22
2023-05-24T21:41:59.962Z,99768.75
2023-05-24T21:44:26.547Z,99768.56
2023-05-24T21:46:53.161Z,99772.38
2023-05-24T21:49:21.100Z,99773.03
2023-05-24T21:51:49.208Z,99772.25
2023-05-24T21:54:15.765Z,99778.28
2023-05-24T21:56:42.338Z,99782.44
2023-05-24T21:59:08.842Z,99789.00
2023-05-24T22:01:35.441Z,99787.97
2023-05-24T22:04:02.073Z,99787.53
2023-05-24T22:06:30.141Z,99792.72
2023-05-24T22:08:56.924Z,99792.75
2023-05-24T22:11:23.477Z,99791.66
2023-05-24T22:13:50.047Z,99799.31
2023-05-24T22:16:16.701Z,99802.09
2023-05-24T22:18:43.238Z,99801.56
2023-05-24T22:21:09.778Z,99809.69
2023-05-24T22:23:37.703Z,99801.03
2023-05-24T22:26:04.331Z,99811.41
2023-05-24T22:28:47.534Z,99810.06
2023-05-24T22:31:14.118Z,99806.63
2023-05-24T22:33:40.739Z,99810.16
2023-05-24T22:36:07.530Z,99811.84
2023-05-24T22:38:34.077Z,99805.09
2023-05-24T22:41:02.160Z,99813.78
2023-05-24T22:43:28.778Z,99812.22
2023-05-24T22:45:56.190Z,99810.13
2023-05-24T22:48:22.948Z,99818.25
2023-05-24T22:50:49.606Z,99815.06
2023-05-24T22:53:16.227Z,99818.59
2023-05-24T22:55:43.008Z,99813.78
2023-05-24T22:58:11.149Z,99815.69
2023-05-24T23:00:37.650Z,99822.72
2023-05-24T23:03:04.418Z,99821.09
2023-05-24T23:05:30.976Z,99827.59
2023-05-24T23:07:57.580Z,99824.91
2023-05-24T23:10:24.133Z,99826.78
2023-05-24T23:12:50.849Z,99833.59
2023-05-24T23:15:18.821Z,99830.88
2023-05-24T23:17:45.544Z,99826.03
2023-05-24T23:20:12.318Z,99827.94
2023-05-24T23:22:38.870Z,99828.50
2023-05-24T23:25:06.676Z,99830.41
2023-05-24T23:27:33.267Z,99825.34
2023-05-24T23:29:59.939Z,99829.44
2023-05-24T23:32:27.872Z,99826.47
2023-05-24T23:34:54.473Z,99831.38
2023-05-24T23:37:21.050Z,99831.66
2023-05-24T23:39:47.597Z,99823.06
2023-05-24T23:42:14.281Z,99824.16
2023-05-24T23:44:40.850Z,99823.34
2023-05-24T23:47:07.746Z,99826.31
2023-05-24T23:49:35.661Z,99825.53
2023-05-24T23:52:02.209Z,99817.19
2023-05-24T23:54:28.773Z,99823.69
2023-05-24T23:56:55.343Z,99826.94
2023-05-24T23:59:22.012Z,99821.28
